• Join FlightAware (Why Join?)
  • Login
  • US Flag 
08:10AM EDT


 

Airport Tracker/Info


-or-


 

Live Flight TrackerFlight Track Log ✈ UAL395 ✈ 21-Jun-2013 ✈ KIAD - KORD

Flight Track Log - Related Links

Times and Time Zones

All times are in EDT time to prevent confusion due to time zone crossing. See the UAL395 flight status page for this flight to view local times or setup timezone preferences in your user account.

Time Position Orientation Groundspeed Altitude Reporting Facility
EDT Latitude Longitude Course Direction KTS MPH feet Rate Location/Type
03:18PM 38.9667 -77.5333 293° West 187 215 1,800  Level Potomac TRACON
03:21PM 39.2533 -77.5300 349° North  Level FlightAware Approximate
03:21PM 39.1025 -77.6325 330° Northwest 261 300 8,500  Level Washington Center
03:22PM 39.3613 -77.5688 344° North  Level FlightAware Approximate
03:22PM 39.1833 -77.6642 343° North 279 321 10,600  Level Washington Center
03:23PM 39.4568 -77.6104 288° West  Level FlightAware Approximate
03:23PM 39.2783 -77.7150 338° Northwest 322 371 12,000  Level Washington Center
03:24PM 39.4936 -77.7475 293° West  Level FlightAware Approximate
03:24PM 39.3814 -77.7719 337° Northwest 369 425 14,200  Level Washington Center
03:25PM 39.4886 -77.8317 337° Northwest 399 459 16,300 1,380 Climbing Washington Center
03:26PM 39.5658 -77.9361 314° West 405 466 17,000 1,080 Climbing Washington Center
03:28PM 39.6711 -78.2961 291° West 421 484 20,200 1,380 Climbing Cleveland Center
03:29PM 39.7136 -78.4458 290° West 441 507 21,800 1,440 Climbing Cleveland Center
03:30PM 39.7600 -78.5983 292° West 447 514 23,100 1,140 Climbing Cleveland Center
03:31PM 39.8003 -78.7592 288° West 453 521 24,100 900 Climbing Cleveland Center
03:32PM 39.8486 -78.9200 291° West 464 534 24,900 780 Climbing Cleveland Center
03:33PM 39.8967 -79.0731 292° West 489 563 25,700 960 Climbing Cleveland Center
03:34PM 39.9425 -79.2400 290° West 494 568 26,900 1,140 Climbing Cleveland Center
03:35PM 40.0006 -79.3989 296° West 494 568 28,000 540 Climbing Cleveland Center
03:36PM 40.0750 -79.5494 303° West 489 563 28,000  Level Cleveland Center
03:37PM 40.1492 -79.6950 304° West 489 563 28,000  Level Cleveland Center
03:38PM 40.2253 -79.8433 304° West 489 563 28,000 120 Level Cleveland Center
03:39PM 40.2992 -79.9869 304° West 489 563 28,300 840 Climbing Cleveland Center
03:40PM 40.3769 -80.1553 301° West 494 568 29,700 1,440 Climbing Cleveland Center
03:41PM 40.4503 -80.2994 304° West 494 568 31,300 1,440 Climbing Cleveland Center
03:42PM 40.5278 -80.4439 305° West 489 563 32,600 1,200 Climbing Cleveland Center
03:43PM 40.5842 -80.5586 303° West 479 551 33,700 600 Climbing Cleveland Center
03:44PM 40.6717 -80.7308 304° West 473 544 33,800 -660 Climbing Cleveland Center
03:45PM 40.7400 -80.8708 303° West 473 544 32,400 -900 Descending Cleveland Center
03:46PM 40.8125 -81.0194 303° West 473 544 32,000 -240 Descending Cleveland Center
03:47PM 40.8808 -81.1681 301° West 473 544 32,000  Level Cleveland Center
03:48PM 40.9447 -81.3006 303° West 473 544 32,000  Level Cleveland Center
03:49PM 41.0144 -81.4472 302° West 475 547 32,000  Level Cleveland Center
03:50PM 41.0842 -81.5942 302° West 475 547 32,000  Level Cleveland Center
03:51PM 41.1681 -81.7581 304° West 480 552 32,000  Level Cleveland Center
03:52PM 41.2394 -81.9058 303° West 480 552 32,000  Level Cleveland Center
03:53PM 41.3106 -82.0536 303° West 480 552 32,000  Level Cleveland Center
03:54PM 41.3942 -82.1886 310° West 482 555 32,000  Level Cleveland Center
03:55PM 41.4989 -82.2992 322° Northwest 472 543 32,000  Level Cleveland Center
03:56PM 41.6058 -82.4019 324° Northwest 477 549 32,000  Level Cleveland Center
03:57PM 41.6981 -82.4908 324° Northwest 469 540 32,000  Level Cleveland Center
03:58PM 41.8067 -82.5972 324° Northwest 474 545 32,000 -60 Level Cleveland Center
03:59PM 41.9133 -82.6983 325° Northwest 474 545 31,900  Descending Cleveland Center
04:00PM 42.0197 -82.8025 324° Northwest 474 545 32,000  Climbing Cleveland Center
04:01PM 42.1283 -82.9069 325° Northwest 474 545 32,000  Level Cleveland Center
04:02PM 42.2364 -83.0147 324° Northwest 474 545 32,000  Level Cleveland Center
04:03PM 42.3447 -83.1200 324° Northwest 474 545 32,000  Level Cleveland Center
04:04PM 42.4528 -83.2256 324° Northwest 474 545 32,000 -60 Level Cleveland Center
04:05PM 42.5606 -83.3344 323° Northwest 474 545 31,900  Descending Cleveland Center
04:06PM 42.6664 -83.4408 324° Northwest 474 545 32,000  Climbing Cleveland Center
04:07PM 42.7681 -83.5472 322° Northwest 474 545 32,000  Level Cleveland Center
04:08PM 42.8717 -83.6542 323° Northwest 469 540 32,000  Level Cleveland Center
04:09PM 42.9300 -83.8075 297° West 451 519 32,000 -540 Level Cleveland Center
04:10PM 42.9139 -84.0022 264° West 447 514 31,000 -840 Descending Cleveland Center
04:11PM 42.9022 -84.1775 265° West 452 520 30,400 -720 Descending Cleveland Center
04:12PM 42.8939 -84.3131 265° West 458 527 29,600 -900 Descending Cleveland Center
04:13PM 42.8794 -84.4964 264° West 458 527 28,600 -840 Descending Cleveland Center
04:14PM 42.8681 -84.6694 265° West 456 525 28,000 -600 Descending Chicago Center
04:15PM 42.8547 -84.8397 264° West 455 524 27,500 -960 Descending Chicago Center
04:16PM 42.8400 -85.0117 263° West 456 525 26,100 -780 Descending Chicago Center
04:17PM 42.8206 -85.1831 261° West 458 527 26,000 -60 Descending Chicago Center
04:18PM 42.7986 -85.3869 262° West 454 522 26,000  Level Chicago Center
04:19PM 42.7764 -85.5589 260° West 458 527 26,000 -420 Level Chicago Center
04:20PM 42.7461 -85.7208 256° West 445 512 25,200 -960 Descending Chicago Center
04:21PM 42.7217 -85.8556 256° West 374 430 24,100 -1,140 Descending Chicago Center
04:23PM 42.6994 -85.9811 256° West 344 396 22,900 -1,260 Descending Chicago Center
04:24PM 42.6764 -86.1022 256° West 333 383 21,500 -1,380 Descending Chicago Center
04:25PM 42.6561 -86.2172 257° West 317 365 20,100 -1,260 Descending Chicago Center
04:26PM 42.6344 -86.3283 255° West 306 352 18,900 -1,500 Descending Chicago Center
04:27PM 42.6097 -86.4611 256° West 304 350 17,100 -1,560 Descending Chicago Center
04:28PM 42.5897 -86.5694 256° West 299 344 15,700 -1,440 Descending Chicago Center
04:29PM 42.5686 -86.6764 255° West 294 338 14,200 -1,500 Descending Chicago Center
04:30PM 42.5469 -86.7797 254° West 289 333 12,600 -1,500 Descending Chicago Center
04:31PM 42.5197 -86.8778 249° West 281 323 11,100 -780 Descending Chicago Center
04:32PM 42.4922 -86.9783 250° West 285 328 11,000 -300 Descending Chicago Center
04:33PM 42.4589 -87.0925 248° West 274 315 10,600 -900 Descending Chicago Center
04:34PM 42.4347 -87.1858 251° West 266 306 9,200 -840 Descending Chicago Center
04:35PM 42.4089 -87.2781 249° West 264 304 8,900 -180 Descending Chicago Center
04:36PM 42.3794 -87.3675 246° West 262 302 8,900  Level Chicago Center
04:37PM 42.3444 -87.4589 243° Southwest 263 303 8,900  Level Chicago Center
04:38PM 42.3161 -87.5475 247° West 260 299 8,900  Level Chicago Center
04:39PM 42.3217 -87.6236 276° West 222 255 8,900 -480 Level Chicago Center
04:40PM 42.2686 -87.6097 169° South 207 238 8,000 -960 Descending Chicago Center
04:41PM 42.2269 -87.6061 176° South 206 237 7,000 -1,020 Descending Chicago Center
04:42PM 42.2078 -87.6589 244° Southwest 163 188 5,900 -900 Descending Chicago Center
04:43PM 42.1744 -87.7011 223° Southwest 171 197 5,200 -900 Descending Chicago Center
04:44PM 42.1344 -87.7444 219° Southwest 161 185 4,100 -900 Descending Chicago Center
04:45PM 42.1022 -87.7800 219° Southwest 152 175 3,400 -720 Descending Chicago Center